createdAt,value
2019-03-15T00:02:49.453Z,55.80
2019-03-15T00:05:43.916Z,56.10
2019-03-15T00:08:38.197Z,56.10
2019-03-15T00:11:32.585Z,57.00
2019-03-15T00:14:27.015Z,55.90
2019-03-15T00:17:21.757Z,56.30
2019-03-15T00:20:16.396Z,55.90
2019-03-15T00:23:11.415Z,55.80
2019-03-15T00:26:05.627Z,55.60
2019-03-15T00:29:00.025Z,55.90
2019-03-15T00:31:54.445Z,56.80
2019-03-15T00:34:48.703Z,56.50
2019-03-15T00:37:43.677Z,56.30
2019-03-15T00:40:38.207Z,55.90
2019-03-15T00:43:32.379Z,55.60
2019-03-15T00:46:26.937Z,55.70
2019-03-15T00:49:21.600Z,55.30
2019-03-15T00:52:16.459Z,55.60
2019-03-15T00:55:11.453Z,55.40
2019-03-15T00:58:06.879Z,55.30
2019-03-15T01:01:01.259Z,55.40
2019-03-15T01:03:56.399Z,55.60
2019-03-15T01:06:51.092Z,55.40
2019-03-15T01:09:45.660Z,56.00
2019-03-15T01:12:40.067Z,55.80
2019-03-15T01:15:34.410Z,55.60
2019-03-15T01:18:29.165Z,55.70
2019-03-15T01:21:23.473Z,55.70
2019-03-15T01:24:18.286Z,55.70
2019-03-15T01:27:12.680Z,56.10
2019-03-15T01:30:07.626Z,56.00
2019-03-15T01:33:02.034Z,56.10
2019-03-15T01:35:56.772Z,55.90
2019-03-15T01:38:51.404Z,55.80
2019-03-15T01:41:45.667Z,55.90
2019-03-15T01:44:40.727Z,56.00
2019-03-15T01:47:35.152Z,56.20
2019-03-15T01:50:30.043Z,56.90
2019-03-15T01:53:26.172Z,56.40
2019-03-15T01:56:21.299Z,56.30
2019-03-15T01:59:15.945Z,56.30
2019-03-15T02:02:10.575Z,56.40
2019-03-15T02:05:05.390Z,56.40
2019-03-15T02:08:00.695Z,56.50
2019-03-15T02:10:56.416Z,56.50
2019-03-15T02:13:51.787Z,56.50
2019-03-15T02:16:46.268Z,57.30
2019-03-15T02:19:41.305Z,57.90
2019-03-15T02:22:35.883Z,56.70
2019-03-15T02:25:31.450Z,57.50
2019-03-15T02:28:25.802Z,56.60
2019-03-15T02:31:20.833Z,56.90
2019-03-15T02:34:15.860Z,57.30
2019-03-15T02:37:10.598Z,56.50
2019-03-15T02:40:05.730Z,56.50
2019-03-15T02:43:00.496Z,56.60
2019-03-15T02:45:55.288Z,56.30
2019-03-15T02:48:50.143Z,56.30
2019-03-15T02:51:45.132Z,56.30
2019-03-15T02:54:39.792Z,56.10
2019-03-15T02:57:35.447Z,56.70
2019-03-15T03:00:30.568Z,56.30
2019-03-15T03:03:25.300Z,56.20
2019-03-15T03:06:20.266Z,56.60
2019-03-15T03:09:15.025Z,56.50
2019-03-15T03:12:09.510Z,56.20
2019-03-15T03:15:04.063Z,56.50
2019-03-15T03:17:58.616Z,57.50
2019-03-15T03:20:53.528Z,58.10
2019-03-15T03:23:48.014Z,58.00
2019-03-15T03:26:44.803Z,58.60
2019-03-15T03:29:39.569Z,57.50
2019-03-15T03:32:35.265Z,58.00
2019-03-15T03:35:29.858Z,57.00
2019-03-15T03:38:24.857Z,56.90
2019-03-15T03:41:19.424Z,56.90
2019-03-15T03:44:14.233Z,57.20
2019-03-15T03:47:08.685Z,56.80
2019-03-15T03:50:03.639Z,56.90
2019-03-15T03:52:59.243Z,57.30
2019-03-15T03:55:53.590Z,56.90
2019-03-15T03:58:47.982Z,57.20
2019-03-15T04:01:43.193Z,56.90
2019-03-15T04:04:38.464Z,57.90
2019-03-15T04:07:33.176Z,57.30
2019-03-15T04:10:27.708Z,57.10
2019-03-15T04:13:22.116Z,54.50
2019-03-15T04:16:17.073Z,52.10
2019-03-15T04:19:12.171Z,50.00
2019-03-15T04:22:07.204Z,49.10
2019-03-15T04:25:02.360Z,48.20
2019-03-15T04:27:57.114Z,48.90
2019-03-15T04:30:55.628Z,47.70
2019-03-15T04:33:50.631Z,46.40
2019-03-15T04:36:45.456Z,46.60
2019-03-15T04:39:41.772Z,45.90
2019-03-15T04:42:36.733Z,50.10
2019-03-15T04:45:31.505Z,51.30
2019-03-15T04:48:26.247Z,54.10
2019-03-15T04:51:20.660Z,55.20
2019-03-15T04:54:15.192Z,56.00
2019-03-15T04:57:10.231Z,56.60
2019-03-15T05:00:04.795Z,56.50
2019-03-15T05:02:59.597Z,56.40
2019-03-15T05:06:03.275Z,56.50
2019-03-15T05:08:56.454Z,56.50
2019-03-15T05:12:24.496Z,57.70
2019-03-15T05:15:16.970Z,57.00
2019-03-15T05:18:26.041Z,57.40
2019-03-15T05:22:13.216Z,57.60
2019-03-15T05:25:47.725Z,58.00
2019-03-15T05:28:50.749Z,57.90
2019-03-15T05:31:50.521Z,58.10
2019-03-15T05:34:50.215Z,58.30
2019-03-15T05:37:48.659Z,59.00
2019-03-15T05:40:44.619Z,58.90
2019-03-15T05:43:41.905Z,59.30
2019-03-15T05:46:39.546Z,58.90
2019-03-15T05:49:36.586Z,59.20
2019-03-15T05:52:34.606Z,59.40
2019-03-15T05:55:53.053Z,58.90
2019-03-15T05:58:50.510Z,59.90
2019-03-15T06:02:27.250Z,59.50
2019-03-15T06:05:26.566Z,59.40
2019-03-15T06:08:40.518Z,60.50
2019-03-15T06:11:42.349Z,59.40
2019-03-15T06:14:39.022Z,59.50
2019-03-15T06:17:37.413Z,59.00
2019-03-15T06:20:35.991Z,59.10
2019-03-15T06:23:32.930Z,59.00
2019-03-15T06:26:28.924Z,59.00
2019-03-15T06:29:28.193Z,58.80
2019-03-15T06:32:24.556Z,59.30
2019-03-15T06:35:21.327Z,58.90
2019-03-15T06:38:33.761Z,59.40
2019-03-15T06:41:30.989Z,58.60
2019-03-15T06:44:32.832Z,58.50
2019-03-15T06:48:01.604Z,58.60
2019-03-15T06:50:56.759Z,59.00
2019-03-15T06:54:10.514Z,59.00
2019-03-15T06:56:56.509Z,58.60
2019-03-15T06:59:55.121Z,58.20
2019-03-15T07:02:58.680Z,57.70
2019-03-15T07:05:56.261Z,59.30
2019-03-15T07:08:52.954Z,57.80
2019-03-15T07:12:13.372Z,58.10
2019-03-15T07:15:09.754Z,57.70
2019-03-15T07:18:56.055Z,58.40
2019-03-15T07:21:54.888Z,58.60
2019-03-15T07:24:51.461Z,58.90
2019-03-15T07:27:49.574Z,58.50
2019-03-15T07:30:44.809Z,58.80
2019-03-15T07:33:43.226Z,58.70
2019-03-15T07:36:39.389Z,58.00
2019-03-15T07:39:38.443Z,58.70
2019-03-15T07:42:33.925Z,58.20
2019-03-15T07:45:29.582Z,57.70
2019-03-15T07:48:26.932Z,58.20
2019-03-15T07:51:22.306Z,58.50
2019-03-15T07:54:17.503Z,58.50
2019-03-15T07:57:20.881Z,57.80
2019-03-15T08:00:18.711Z,58.00
2019-03-15T08:03:21.926Z,58.40
2019-03-15T08:06:34.875Z,57.90
2019-03-15T08:09:29.672Z,57.40
2019-03-15T08:12:26.158Z,57.10
2019-03-15T08:15:22.227Z,57.60
2019-03-15T08:18:26.515Z,56.80
2019-03-15T08:21:23.809Z,57.70
2019-03-15T08:24:19.008Z,57.90
2019-03-15T08:27:16.199Z,56.50
2019-03-15T08:30:14.295Z,56.50
2019-03-15T08:33:16.060Z,56.00
2019-03-15T08:36:21.304Z,56.40
2019-03-15T08:39:20.744Z,56.50
2019-03-15T08:42:17.745Z,55.90
2019-03-15T08:45:17.903Z,55.80
2019-03-15T08:48:31.936Z,55.00
2019-03-15T08:51:47.664Z,55.90
2019-03-15T08:55:05.271Z,53.80
2019-03-15T08:58:13.827Z,53.60
2019-03-15T09:01:17.867Z,54.10
2019-03-15T09:04:21.326Z,53.00
2019-03-15T09:07:18.334Z,52.00
2019-03-15T09:10:28.936Z,54.00
2019-03-15T09:13:51.479Z,53.90
2019-03-15T09:24:29.784Z,53.20
2019-03-15T09:27:47.773Z,53.80
2019-03-15T09:38:54.003Z,53.60
2019-03-15T09:41:53.593Z,52.10
2019-03-15T09:44:51.219Z,53.90
2019-03-15T09:47:51.976Z,53.60
2019-03-15T09:50:51.728Z,53.90
2019-03-15T09:55:02.445Z,55.60
2019-03-15T10:02:15.328Z,56.20
2019-03-15T10:05:49.021Z,55.20
2019-03-15T10:13:40.853Z,55.90
2019-03-15T10:17:03.945Z,56.30
2019-03-15T10:20:32.820Z,56.20
2019-03-15T10:27:42.760Z,56.40
2019-03-15T10:30:45.348Z,54.10
2019-03-15T10:34:05.644Z,56.10
2019-03-15T10:37:06.030Z,56.70
2019-03-15T10:40:24.077Z,56.10
2019-03-15T10:43:27.774Z,56.10
2019-03-15T10:46:46.935Z,55.70
2019-03-15T10:49:42.821Z,54.50
2019-03-15T10:52:40.858Z,55.50
2019-03-15T10:55:37.443Z,55.50
2019-03-15T10:58:32.726Z,55.30
2019-03-15T11:01:30.958Z,55.50
2019-03-15T11:04:32.355Z,56.60
2019-03-15T11:07:27.620Z,55.20
2019-03-15T11:10:22.473Z,56.50
2019-03-15T11:13:23.286Z,55.10
2019-03-15T11:16:21.147Z,54.50
2019-03-15T11:19:17.678Z,55.00
2019-03-15T11:22:16.791Z,57.00
2019-03-15T11:25:13.606Z,54.90
2019-03-15T11:28:13.825Z,51.90
2019-03-15T11:31:09.959Z,50.10
2019-03-15T11:34:06.395Z,49.10
2019-03-15T11:37:03.508Z,48.30
2019-03-15T11:40:24.613Z,47.70
2019-03-15T11:43:23.574Z,47.80
2019-03-15T11:46:39.093Z,48.20
2019-03-15T11:49:31.240Z,46.70
2019-03-15T11:52:25.915Z,47.80
2019-03-15T11:55:21.094Z,47.50
2019-03-15T11:58:17.168Z,47.20
2019-03-15T12:01:13.590Z,47.10
2019-03-15T12:04:09.724Z,46.70
2019-03-15T12:07:04.693Z,47.00
2019-03-15T12:10:00.795Z,48.10
2019-03-15T12:12:55.316Z,49.40
2019-03-15T12:15:51.577Z,50.30
2019-03-15T12:18:47.166Z,51.00
2019-03-15T12:22:06.263Z,52.20
2019-03-15T12:24:59.720Z,53.40
2019-03-15T12:27:55.603Z,52.50
2019-03-15T12:31:13.622Z,53.50
2019-03-15T12:34:21.150Z,52.90
2019-03-15T12:37:25.528Z,53.00
2019-03-15T12:40:30.900Z,52.70
2019-03-15T12:43:31.510Z,52.80
2019-03-15T12:46:33.899Z,52.90
2019-03-15T12:50:04.282Z,52.80
2019-03-15T12:52:59.593Z,52.70
2019-03-15T12:55:55.782Z,52.80
2019-03-15T12:58:52.154Z,52.70
2019-03-15T13:01:47.503Z,52.20
2019-03-15T13:04:42.249Z,52.50
2019-03-15T13:07:50.745Z,52.40
2019-03-15T13:10:48.673Z,52.00
2019-03-15T13:13:45.194Z,52.10
2019-03-15T13:16:46.563Z,51.60
2019-03-15T13:19:40.109Z,51.80
2019-03-15T13:22:36.128Z,52.00
2019-03-15T13:25:31.212Z,51.90
2019-03-15T13:28:26.144Z,52.00
2019-03-15T13:31:22.019Z,52.20
2019-03-15T13:34:16.591Z,52.30
2019-03-15T13:37:14.913Z,52.30
2019-03-15T13:40:13.053Z,52.40
2019-03-15T13:43:11.773Z,52.70
2019-03-15T13:46:06.790Z,52.60
2019-03-15T13:49:02.092Z,52.90
2019-03-15T13:51:57.002Z,52.40
2019-03-15T13:54:51.647Z,52.20
2019-03-15T13:57:46.978Z,52.50
2019-03-15T14:00:41.577Z,52.30
2019-03-15T14:03:37.479Z,52.30
2019-03-15T14:06:31.846Z,52.50
2019-03-15T14:09:26.664Z,52.60
2019-03-15T14:12:21.233Z,52.80
2019-03-15T14:15:16.267Z,52.70
2019-03-15T14:18:11.010Z,53.40
2019-03-15T14:21:05.689Z,52.50
2019-03-15T14:24:00.575Z,52.80
2019-03-15T14:26:55.269Z,52.80
2019-03-15T14:29:50.002Z,52.90
2019-03-15T14:32:45.181Z,53.00
2019-03-15T14:35:39.521Z,52.90
2019-03-15T14:38:34.541Z,53.20
2019-03-15T14:41:28.912Z,53.20
2019-03-15T14:44:23.487Z,52.90
2019-03-15T14:47:18.023Z,52.90
2019-03-15T14:50:13.386Z,53.10
2019-03-15T14:53:08.212Z,53.00
2019-03-15T14:56:03.213Z,53.60
2019-03-15T14:58:57.671Z,53.00
2019-03-15T15:01:52.328Z,52.90
2019-03-15T15:04:46.978Z,52.80
2019-03-15T15:07:41.638Z,53.00
2019-03-15T15:10:37.302Z,52.90
2019-03-15T15:13:32.655Z,53.00
2019-03-15T15:16:28.975Z,52.90
2019-03-15T15:19:24.598Z,52.90
2019-03-15T15:22:19.589Z,53.40
2019-03-15T15:25:14.705Z,53.40
2019-03-15T15:28:10.301Z,53.30
2019-03-15T15:31:06.006Z,53.50
2019-03-15T15:34:01.033Z,53.30
2019-03-15T15:36:58.176Z,53.30
2019-03-15T15:39:53.716Z,53.10
2019-03-15T15:42:49.596Z,54.10
2019-03-15T15:45:45.268Z,54.20
2019-03-15T15:48:40.931Z,53.50
2019-03-15T15:51:36.438Z,53.70
2019-03-15T15:54:31.391Z,53.50
2019-03-15T15:57:26.996Z,53.60
2019-03-15T16:00:27.615Z,53.50
2019-03-15T16:03:23.167Z,54.10
2019-03-15T16:06:18.824Z,53.60
2019-03-15T16:09:14.580Z,53.50
2019-03-15T16:12:12.053Z,53.90
2019-03-15T16:15:07.459Z,53.60
2019-03-15T16:18:05.801Z,53.80
2019-03-15T16:21:05.087Z,53.60
2019-03-15T16:24:00.761Z,53.70
2019-03-15T16:26:56.434Z,53.70
2019-03-15T16:29:53.299Z,53.80
2019-03-15T16:32:51.835Z,53.60
2019-03-15T16:35:47.891Z,53.50
2019-03-15T16:38:43.394Z,53.70
2019-03-15T16:41:39.802Z,53.80
2019-03-15T16:44:35.290Z,53.80
2019-03-15T16:47:30.510Z,53.60
2019-03-15T16:50:25.906Z,53.60
2019-03-15T16:53:21.784Z,53.60
2019-03-15T16:56:20.174Z,53.80
2019-03-15T16:59:13.767Z,54.00
2019-03-15T17:02:09.181Z,53.80
2019-03-15T17:05:04.682Z,53.80
2019-03-15T17:08:00.802Z,53.90
2019-03-15T17:10:56.395Z,54.10
2019-03-15T17:13:51.802Z,53.80
2019-03-15T17:16:47.475Z,53.90
2019-03-15T17:19:42.754Z,54.10
2019-03-15T17:22:38.766Z,54.10
2019-03-15T17:25:35.109Z,54.00
2019-03-15T17:28:31.561Z,54.10
2019-03-15T17:31:27.874Z,54.10
2019-03-15T17:34:23.628Z,53.70
2019-03-15T17:37:19.754Z,54.10
2019-03-15T17:40:16.855Z,53.70
2019-03-15T17:43:13.494Z,54.20
2019-03-15T17:46:08.818Z,54.50
2019-03-15T17:49:06.302Z,54.00
2019-03-15T17:52:02.503Z,53.70
2019-03-15T17:54:58.173Z,54.00
2019-03-15T17:57:53.655Z,54.00
2019-03-15T18:00:49.960Z,54.00
2019-03-15T18:03:47.330Z,53.40
2019-03-15T18:06:44.024Z,53.80
2019-03-15T18:09:39.393Z,54.00
2019-03-15T18:12:34.445Z,53.90
2019-03-15T18:15:30.025Z,53.60
2019-03-15T18:18:25.988Z,54.00
2019-03-15T18:21:21.403Z,53.70
2019-03-15T18:24:16.881Z,54.10
2019-03-15T18:27:13.373Z,53.90
2019-03-15T18:30:08.752Z,53.90
2019-03-15T18:33:04.962Z,54.00
2019-03-15T18:35:59.594Z,53.90
2019-03-15T18:38:54.544Z,52.50
2019-03-15T18:41:50.725Z,50.00
2019-03-15T18:44:45.880Z,48.50
2019-03-15T18:47:41.255Z,47.60
2019-03-15T18:50:36.315Z,46.00
2019-03-15T18:53:32.350Z,45.30
2019-03-15T18:56:27.614Z,44.90
2019-03-15T18:59:23.867Z,43.90
2019-03-15T19:02:20.421Z,44.20
2019-03-15T19:05:15.983Z,43.00
2019-03-15T19:08:11.090Z,42.90
2019-03-15T19:11:05.956Z,43.10
2019-03-15T19:14:00.574Z,42.20
2019-03-15T19:16:55.492Z,42.10
2019-03-15T19:19:49.970Z,41.90
2019-03-15T19:22:44.745Z,41.60
2019-03-15T19:25:39.747Z,41.80
2019-03-15T19:28:34.453Z,42.80
2019-03-15T19:31:29.278Z,41.50
2019-03-15T19:34:23.581Z,41.10
2019-03-15T19:37:18.515Z,41.30
2019-03-15T19:40:14.752Z,41.00
2019-03-15T19:43:09.234Z,41.00
2019-03-15T19:46:03.687Z,40.80
2019-03-15T19:48:58.748Z,40.90
2019-03-15T19:51:54.133Z,40.90
2019-03-15T19:54:59.793Z,40.60
2019-03-15T19:57:44.443Z,40.80
2019-03-15T20:00:39.543Z,40.70
2019-03-15T20:03:43.493Z,40.90
2019-03-15T20:06:30.759Z,40.60
2019-03-15T20:09:25.544Z,41.30
2019-03-15T20:12:20.423Z,40.70
2019-03-15T20:15:17.146Z,40.80
2019-03-15T20:18:11.550Z,41.00
2019-03-15T20:21:06.352Z,40.90
2019-03-15T20:24:01.224Z,40.90
2019-03-15T20:26:56.021Z,40.70
2019-03-15T20:29:53.495Z,40.70
2019-03-15T20:32:47.948Z,40.80
2019-03-15T20:35:42.502Z,40.70
2019-03-15T20:38:37.532Z,41.00
2019-03-15T20:41:32.322Z,40.80
2019-03-15T20:44:29.083Z,40.90
2019-03-15T20:47:24.440Z,40.60
2019-03-15T20:50:19.172Z,41.10
2019-03-15T20:53:13.848Z,40.50
2019-03-15T20:56:08.349Z,41.50
2019-03-15T20:59:02.864Z,40.60
2019-03-15T21:01:57.531Z,40.70
2019-03-15T21:04:53.368Z,40.70
2019-03-15T21:07:48.117Z,40.60
2019-03-15T21:10:42.799Z,40.60
2019-03-15T21:13:37.206Z,41.30
2019-03-15T21:16:32.031Z,40.70
2019-03-15T21:19:27.404Z,40.90
2019-03-15T21:22:22.110Z,40.60
2019-03-15T21:25:16.705Z,40.90
2019-03-15T21:28:11.317Z,41.20
2019-03-15T21:31:07.162Z,40.70
2019-03-15T21:34:03.804Z,40.40
2019-03-15T21:37:00.086Z,40.60
2019-03-15T21:39:54.509Z,40.80
2019-03-15T21:42:49.281Z,40.50
2019-03-15T21:45:43.598Z,40.70
2019-03-15T21:48:38.262Z,40.50
2019-03-15T21:51:33.311Z,41.60
2019-03-15T21:54:28.073Z,40.40
2019-03-15T21:57:22.442Z,40.50
2019-03-15T22:00:17.402Z,40.60
2019-03-15T22:03:11.776Z,41.40
2019-03-15T22:06:06.351Z,40.40
2019-03-15T22:09:00.821Z,40.30
2019-03-15T22:11:55.917Z,40.70
2019-03-15T22:14:50.635Z,40.50
2019-03-15T22:17:45.408Z,40.70
2019-03-15T22:20:40.331Z,40.50
2019-03-15T22:23:35.334Z,40.70
2019-03-15T22:26:30.185Z,40.90
2019-03-15T22:29:24.758Z,40.90
2019-03-15T22:32:19.183Z,40.30
2019-03-15T22:35:13.943Z,40.20
2019-03-15T22:38:08.678Z,39.90
2019-03-15T22:41:03.223Z,40.20
2019-03-15T22:43:57.800Z,40.00
2019-03-15T22:46:52.346Z,39.80
2019-03-15T22:49:46.691Z,40.00
2019-03-15T22:52:41.121Z,39.90
2019-03-15T22:55:35.333Z,39.70
2019-03-15T22:58:31.066Z,40.70
2019-03-15T23:01:30.406Z,40.60
2019-03-15T23:04:21.302Z,39.80
2019-03-15T23:07:15.827Z,40.20
2019-03-15T23:10:11.002Z,39.70
2019-03-15T23:13:05.528Z,39.50
2019-03-15T23:15:59.929Z,39.60
2019-03-15T23:18:54.625Z,39.70
2019-03-15T23:21:49.652Z,39.90
2019-03-15T23:24:45.198Z,40.10
2019-03-15T23:27:41.522Z,40.80
2019-03-15T23:30:35.894Z,41.30
2019-03-15T23:33:30.473Z,41.70
2019-03-15T23:36:25.114Z,42.30
2019-03-15T23:39:19.615Z,42.70
2019-03-15T23:42:14.281Z,43.80
2019-03-15T23:45:09.141Z,43.70
2019-03-15T23:48:03.803Z,43.60
2019-03-15T23:50:58.057Z,44.10
2019-03-15T23:53:52.643Z,44.30
2019-03-15T23:56:47.147Z,44.50
2019-03-15T23:59:42.334Z,45.10
